Time;durP1;ratioP1;P1;durP2;ratioP2;P2;SDS_P1;SDS_P2;PMS_P1;PMS_P2;Temp;Humidity;BMP_temperature;BMP_pressure;BME280_temperature;BME280_humidity;BME280_pressure;Samples;Min_cycle;Max_cycle;Signal;HPM_P1;HPM_P2
2022/01/28 00:05:22;;;;;;;33.53;5.28;;;5.80;99.90;;;;;;5072641;28;20396;-70
2022/01/28 00:07:52;;;;;;;38.90;5.15;;;;;;;;;;5073494;28;20527;-69
2022/01/28 00:10:20;;;;;;;22.85;4.50;;;5.80;99.90;;;;;;5073306;28;20131;-71
2022/01/28 00:39:30;;;;;;;35.95;4.47;;;6.10;99.90;;;;;;5072064;28;20159;-69
2022/01/28 00:41:56;;;;;;;32.03;5.78;;;;;;;;;;5072878;28;20423;-70
2022/01/28 00:44:21;;;;;;;31.15;5.13;;;6.20;99.90;;;;;;5072754;28;20464;-71
2022/01/28 00:46:47;;;;;;;24.02;3.65;;;6.10;99.90;;;;;;5072660;28;20056;-71
2022/01/28 00:49:13;;;;;;;26.00;3.42;;;6.00;99.90;;;;;;5072861;28;20044;-70
2022/01/28 00:51:39;;;;;;;29.75;3.63;;;;;;;;;;5072865;28;20052;-70
2022/01/28 00:54:04;;;;;;;25.95;3.70;;;5.80;99.90;;;;;;5072796;28;20044;-70
2022/01/28 00:56:31;;;;;;;33.13;4.85;;;;;;;;;;5072710;28;20101;-70
2022/01/28 00:58:56;;;;;;;24.30;4.45;;;5.90;99.90;;;;;;5072585;28;20045;-71
2022/01/28 01:01:22;;;;;;;23.13;4.07;;;;;;;;;;5072676;28;20106;-71
2022/01/28 01:03:48;;;;;;;32.25;5.07;;;5.80;99.90;;;;;;5071688;28;20060;-72
2022/01/28 01:06:14;;;;;;;31.73;5.47;;;5.80;99.90;;;;;;5071735;28;20044;-69
2022/01/28 01:08:39;;;;;;;27.95;4.20;;;5.80;99.90;;;;;;5072541;28;20123;-70
2022/01/28 01:11:06;;;;;;;29.95;4.50;;;5.90;99.90;;;;;;5071431;28;20056;-70
2022/01/28 01:13:36;;;;;;;;;;;6.10;99.90;;;;;;5072866;28;20477;-70
2022/01/28 01:16:03;;;;;;;26.70;4.30;;;;;;;;;;5072378;28;20418;-71
2022/01/28 01:18:48;;;;;;;33.15;5.20;;;5.60;99.90;;;;;;5072552;28;20416;-71
2022/01/28 01:21:21;;;;;;;26.98;4.47;;;;;;;;;;5071589;28;20063;-71
2022/01/28 01:23:54;;;;;;;28.98;4.38;;;;;;;;;;5071391;28;20488;-72
2022/01/28 01:26:30;;;;;;;23.73;4.32;;;;;;;;;;5072559;28;20053;-70
2022/01/28 01:28:55;;;;;;;30.67;5.03;;;5.70;99.90;;;;;;5072486;28;20049;-72
2022/01/28 01:31:21;;;;;;;31.23;4.47;;;5.70;99.90;;;;;;5072264;28;20133;-71
2022/01/28 01:36:18;;;;;;;32.38;5.10;;;5.60;99.90;;;;;;5072304;28;20064;-70
2022/01/28 01:38:45;;;;;;;35.47;5.28;;;;;;;;;;5075061;28;20480;-70
2022/01/28 01:41:16;;;;;;;38.30;6.30;;;5.80;99.90;;;;;;5076134;28;20477;-70
2022/01/28 01:54:39;;;;;;;36.08;5.13;;;6.40;99.90;;;;;;5075881;28;20049;-71
2022/01/28 01:57:06;;;;;;;32.00;5.07;;;6.30;99.90;;;;;;5075755;28;20045;-71
2022/01/28 01:59:32;;;;;;;40.58;6.35;;;6.30;99.90;;;;;;5075701;28;20070;-71
2022/01/28 02:01:57;;;;;;;30.63;5.22;;;6.20;99.90;;;;;;5076001;28;20127;-71
2022/01/28 02:04:23;;;;;;;32.20;4.78;;;6.00;99.90;;;;;;5075693;28;20099;-70
2022/01/28 02:06:50;;;;;;;36.92;4.72;;;6.20;99.90;;;;;;5075947;28;20049;-71
2022/01/28 02:09:16;;;;;;;34.58;5.55;;;6.40;99.90;;;;;;5075623;28;20495;-70
2022/01/28 02:11:42;;;;;;;39.22;6.53;;;6.00;99.90;;;;;;5074574;28;20048;-71
2022/01/28 02:14:08;;;;;;;32.00;5.35;;;6.10;99.90;;;;;;5075126;28;20105;-71
2022/01/28 02:16:33;;;;;;;34.20;5.00;;;6.10;99.90;;;;;;5075887;28;20433;-71
2022/01/28 02:18:59;;;;;;;42.30;5.50;;;;;;;;;;5075632;28;20084;-71
2022/01/28 02:21:25;;;;;;;31.45;5.53;;;5.90;99.90;;;;;;5074425;28;20052;-71
2022/01/28 02:23:57;;;;;;;40.97;5.25;;;6.10;99.90;;;;;;5074536;28;20166;-70
2022/01/28 02:26:23;;;;;;;31.83;5.15;;;6.00;99.90;;;;;;5075150;28;20048;-69
2022/01/28 02:28:53;;;;;;;34.60;4.88;;;6.00;99.90;;;;;;5075371;28;20056;-70
2022/01/28 02:31:26;;;;;;;32.55;5.18;;;6.20;99.90;;;;;;5074069;28;20477;-71
2022/01/28 02:33:55;;;;;;;30.92;5.18;;;;;;;;;;5075162;28;20444;-71
2022/01/28 02:36:21;;;;;;;28.98;4.80;;;6.30;99.90;;;;;;5075140;28;20484;-70
2022/01/28 02:38:47;;;;;;;23.85;5.07;;;;;;;;;;5074076;28;20053;-70
2022/01/28 02:41:13;;;;;;;29.70;4.20;;;;;;;;;;5074271;28;20056;-70
2022/01/28 02:43:55;;;;;;;25.13;4.55;;;6.20;99.90;;;;;;5074840;28;20036;-69
2022/01/28 02:46:21;;;;;;;25.15;4.85;;;6.50;99.90;;;;;;5075114;28;20057;-70
2022/01/28 02:49:00;;;;;;;30.27;4.65;;;6.40;99.90;;;;;;5089814;28;20181;-69
2022/01/28 02:51:26;;;;;;;32.78;4.63;;;6.30;99.90;;;;;;5074669;28;20064;-70
2022/01/28 02:53:55;;;;;;;23.73;4.90;;;6.10;99.90;;;;;;5090356;28;20048;-70
2022/01/28 02:56:33;;;;;;;34.13;5.13;;;6.20;99.90;;;;;;5073620;28;20174;-69
2022/01/28 02:58:59;;;;;;;28.20;4.20;;;6.20;99.90;;;;;;5074688;28;20457;-67
2022/01/28 03:01:25;;;;;;;23.33;3.70;;;6.10;99.90;;;;;;5074631;28;20634;-70
2022/01/28 03:03:55;;;;;;;28.00;4.20;;;6.20;99.90;;;;;;5074633;28;20090;-69
2022/01/28 03:06:22;;;;;;;21.42;3.53;;;6.10;99.90;;;;;;5074590;28;20455;-70
2022/01/28 03:08:59;;;;;;;33.33;4.88;;;6.00;99.90;;;;;;5074612;28;20048;-70
2022/01/28 03:16:54;;;;;;;25.92;4.03;;;6.00;99.90;;;;;;5074381;28;20412;-69
2022/01/28 03:19:23;;;;;;;32.90;5.25;;;6.00;99.90;;;;;;5087893;28;20051;-69
2022/01/28 03:21:56;;;;;;;18.48;3.95;;;6.10;99.90;;;;;;5073827;28;20045;-70
2022/01/28 03:24:26;;;;;;;31.30;4.78;;;6.10;99.90;;;;;;5073525;28;20045;-68
2022/01/28 03:26:59;;;;;;;26.33;6.32;;;6.20;99.90;;;;;;5073870;28;20404;-69
2022/01/28 03:29:25;;;;;;;30.75;4.47;;;6.30;99.90;;;;;;5074338;28;20092;-70
2022/01/28 03:31:50;;;;;;;26.52;4.03;;;6.10;99.90;;;;;;5072907;28;20071;-69
2022/01/28 03:34:17;;;;;;;22.35;3.40;;;6.20;99.90;;;;;;5072391;28;20052;-69
2022/01/28 03:36:42;;;;;;;22.02;3.80;;;5.90;99.90;;;;;;5073987;28;20140;-69
2022/01/28 03:39:10;;;;;;;26.75;4.03;;;6.20;99.90;;;;;;5089691;28;20131;-70
2022/01/28 03:41:36;;;;;;;26.92;4.60;;;;;;;;;;5073516;28;20046;-68
2022/01/28 03:44:02;;;;;;;19.48;3.97;;;;;;;;;;5072929;28;20082;-70
2022/01/28 03:46:29;;;;;;;20.30;4.18;;;6.10;99.90;;;;;;5073878;28;20066;-70
2022/01/28 03:48:56;;;;;;;37.08;4.50;;;6.10;99.90;;;;;;5072989;28;20123;-69
2022/01/28 03:51:21;;;;;;;;;;;6.50;99.90;;;;;;5074230;28;20044;-70
2022/01/28 03:53:48;;;;;;;37.33;5.90;;;6.10;99.90;;;;;;5073488;28;19973;-69
2022/01/28 03:56:13;;;;;;;36.63;5.82;;;6.00;99.90;;;;;;5073277;28;20051;-70
2022/01/28 03:58:39;;;;;;;34.45;5.30;;;5.90;99.90;;;;;;5072303;28;20041;-69
2022/01/28 04:01:12;;;;;;;29.92;4.43;;;;;;;;;;5073538;28;20041;-70
2022/01/28 04:03:46;;;;;;;32.42;5.00;;;5.90;99.90;;;;;;5073725;28;20106;-69
2022/01/28 04:11:37;;;;;;;31.33;5.70;;;;;;;;;;5073361;28;20053;-69
2022/01/28 04:14:22;;;;;;;31.42;5.55;;;6.00;99.90;;;;;;5073389;28;20048;-68
2022/01/28 04:19:31;;;;;;;35.13;6.15;;;6.10;99.90;;;;;;5073396;28;20049;-70
2022/01/28 04:21:58;;;;;;;30.48;4.40;;;6.10;99.90;;;;;;5073232;28;20123;-69
2022/01/28 04:24:24;;;;;;;25.40;4.47;;;6.30;99.90;;;;;;5072848;28;20542;-69
2022/01/28 04:26:50;;;;;;;33.08;4.80;;;;;;;;;;5071918;28;20107;-70
2022/01/28 04:29:16;;;;;;;24.13;4.97;;;;;;;;;;5072833;28;20049;-69
2022/01/28 04:31:45;;;;;;;36.28;4.65;;;5.80;99.90;;;;;;5072793;28;20538;-70
2022/01/28 04:34:15;;;;;;;32.33;4.68;;;5.90;99.90;;;;;;5073012;28;20041;-68
2022/01/28 04:36:54;;;;;;;34.70;5.20;;;5.50;99.90;;;;;;5072947;28;20098;-69
2022/01/28 04:39:39;;;;;;;22.48;4.60;;;5.90;99.90;;;;;;5072778;28;20127;-69
2022/01/28 04:42:21;;;;;;;31.80;4.35;;;5.90;99.90;;;;;;5072747;28;20481;-69
2022/01/28 04:50:11;;;;;;;17.30;3.80;;;5.90;99.90;;;;;;5072854;28;20044;-70
2022/01/28 05:03:06;;;;;;;27.65;4.75;;;5.70;99.90;;;;;;5072425;28;20594;-69
2022/01/28 05:28:34;;;;;;;34.25;4.00;;;5.60;99.90;;;;;;5092171;28;20060;-69
2022/01/28 05:31:00;;;;;;;35.10;4.40;;;;;;;;;;5076451;28;20052;-70
2022/01/28 05:33:25;;;;;;;22.38;4.15;;;5.50;99.90;;;;;;5075264;28;20052;-70
2022/01/28 05:35:51;;;;;;;25.92;4.78;;;5.50;99.90;;;;;;5076319;28;20140;-69
2022/01/28 05:38:17;;;;;;;27.85;4.00;;;;;;;;;;5075073;28;20132;-70
2022/01/28 05:40:43;;;;;;;19.63;3.85;;;;;;;;;;5076472;28;20048;-70
2022/01/28 05:43:09;;;;;;;31.92;4.50;;;5.70;99.90;;;;;;5075357;28;20408;-69
2022/01/28 05:45:35;;;;;;;24.52;4.53;;;5.80;99.90;;;;;;5076369;28;20055;-69
2022/01/28 05:48:00;;;;;;;24.13;4.70;;;6.00;99.90;;;;;;5076095;28;20536;-69
2022/01/28 05:50:26;;;;;;;33.38;4.45;;;6.00;99.90;;;;;;5075779;28;20496;-69
2022/01/28 05:52:52;;;;;;;29.15;4.43;;;6.10;99.90;;;;;;5075793;28;20134;-69
2022/01/28 05:55:17;;;;;;;23.42;5.03;;;6.00;99.90;;;;;;5075948;28;20197;-69
2022/01/28 05:57:43;;;;;;;27.10;4.35;;;6.00;99.90;;;;;;5075036;28;20045;-69
2022/01/28 06:00:09;;;;;;;22.50;4.28;;;6.10;99.90;;;;;;5075683;28;20110;-69
2022/01/28 06:02:35;;;;;;;29.95;4.28;;;6.10;99.90;;;;;;5076062;28;20480;-68
2022/01/28 06:05:01;;;;;;;34.10;4.80;;;6.10;99.90;;;;;;5075692;28;20048;-69
2022/01/28 06:07:26;;;;;;;25.15;4.05;;;6.20;99.90;;;;;;5075591;28;20045;-70
2022/01/28 06:09:52;;;;;;;31.85;6.03;;;6.20;99.90;;;;;;5075866;28;20048;-69
2022/01/28 06:12:20;;;;;;;33.53;4.35;;;;;;;;;;5091374;28;20051;-70
2022/01/28 06:14:46;;;;;;;35.33;5.22;;;6.20;99.90;;;;;;5075564;28;20113;-69
2022/01/28 06:17:11;;;;;;;38.40;4.47;;;6.20;99.90;;;;;;5074349;28;20059;-70
2022/01/28 06:19:37;;;;;;;33.90;5.60;;;6.20;99.90;;;;;;5075286;28;20080;-69
2022/01/28 06:22:03;;;;;;;36.15;4.68;;;6.20;99.90;;;;;;5075170;28;20049;-70
2022/01/28 06:24:29;;;;;;;29.20;4.53;;;;;;;;;;5075821;28;20044;-70
2022/01/28 06:26:55;;;;;;;34.63;5.47;;;6.10;99.90;;;;;;5075700;28;20404;-70
2022/01/28 06:29:21;;;;;;;35.22;5.78;;;;;;;;;;5075587;28;20055;-69
2022/01/28 06:31:47;;;;;;;38.55;6.45;;;6.20;99.90;;;;;;5074284;28;20091;-69
2022/01/28 06:34:15;;;;;;;34.42;6.13;;;6.20;99.90;;;;;;5074898;28;20044;-69
2022/01/28 06:36:41;;;;;;;39.97;5.80;;;5.80;99.90;;;;;;5074939;28;20049;-69
2022/01/28 06:39:07;;;;;;;45.22;6.15;;;6.30;99.90;;;;;;5075160;28;20052;-69
2022/01/28 06:41:33;;;;;;;44.17;4.80;;;6.00;99.90;;;;;;5075127;28;20044;-70
2022/01/28 06:43:59;;;;;;;46.67;6.60;;;;;;;;;;5074221;28;20044;-69
2022/01/28 06:46:25;;;;;;;;;;;5.70;99.90;;;;;;5063724;28;20466;-69
2022/01/28 06:48:51;;;;;;;32.42;5.22;;;;;;;;;;5064817;28;19924;-69
2022/01/28 06:51:16;;;;;;;41.55;4.93;;;5.90;99.90;;;;;;5059241;28;20055;-70
2022/01/28 06:53:42;;;;;;;34.85;5.72;;;5.90;99.90;;;;;;5061323;28;20118;-68
2022/01/28 06:56:08;;;;;;;32.83;4.97;;;6.10;99.90;;;;;;5062192;28;20045;-69
2022/01/28 06:58:33;;;;;;;35.65;4.90;;;5.80;99.90;;;;;;5080634;28;20086;-69
2022/01/28 07:00:59;;;;;;;35.55;4.78;;;5.80;99.90;;;;;;5060741;28;20107;-69
2022/01/28 07:03:25;;;;;;;36.17;5.40;;;;;;;;;;5064718;28;20080;-69
2022/01/28 07:05:51;;;;;;;38.33;4.70;;;5.80;99.90;;;;;;5062202;28;20889;-69
2022/01/28 07:08:16;;;;;;;39.50;5.40;;;5.70;99.90;;;;;;5061212;28;20060;-70
2022/01/28 07:10:42;;;;;;;35.47;5.57;;;5.70;99.90;;;;;;5052354;28;20440;-70
2022/01/28 07:13:08;;;;;;;39.80;5.25;;;5.80;99.90;;;;;;5053276;28;20439;-70
2022/01/28 07:15:34;;;;;;;38.20;5.22;;;;;;;;;;5054429;28;20051;-69
2022/01/28 07:18:02;;;;;;;28.48;4.95;;;;;;;;;;5052912;28;20099;-68
2022/01/28 07:20:29;;;;;;;37.72;4.65;;;5.40;99.90;;;;;;5053008;28;20109;-70
2022/01/28 07:22:55;;;;;;;25.33;4.60;;;;;;;;;;5054075;28;20505;-70
2022/01/28 07:25:21;;;;;;;28.30;3.90;;;5.40;99.90;;;;;;5053322;28;20056;-68
2022/01/28 07:27:47;;;;;;;29.38;5.10;;;;;;;;;;5053190;28;20053;-72
2022/01/28 07:30:15;;;;;;;37.70;3.90;;;5.50;99.90;;;;;;5053952;28;20561;-72
2022/01/28 07:32:42;;;;;;;28.00;3.78;;;5.40;99.90;;;;;;5068734;28;20049;-71
2022/01/28 07:35:08;;;;;;;31.92;4.55;;;5.20;99.90;;;;;;5053227;28;20107;-70
2022/01/28 07:37:34;;;;;;;29.00;4.32;;;5.30;99.90;;;;;;5053911;28;20206;-71
2022/01/28 07:40:02;;;;;;;43.03;5.43;;;5.60;99.90;;;;;;5053946;28;20536;-71
2022/01/28 07:42:32;;;;;;;32.83;4.25;;;5.40;99.90;;;;;;5053400;28;20056;-71
2022/01/28 07:44:58;;;;;;;36.70;5.20;;;5.40;99.90;;;;;;5052344;28;20581;-69
2022/01/28 07:47:24;;;;;;;40.95;4.90;;;5.80;99.90;;;;;;5053563;28;20091;-71
2022/01/28 07:49:49;;;;;;;31.42;4.65;;;5.50;99.90;;;;;;5036075;28;20053;-70
2022/01/28 07:52:15;;;;;;;26.58;3.75;;;5.40;99.90;;;;;;5036209;28;20056;-70
2022/01/28 07:54:47;;;;;;;37.05;5.07;;;;;;;;;;5052541;28;20048;-70
2022/01/28 07:57:13;;;;;;;28.00;3.92;;;5.80;99.90;;;;;;5053684;28;20086;-70
2022/01/28 07:59:38;;;;;;;39.17;4.25;;;5.90;99.90;;;;;;5053659;28;20048;-70
2022/01/28 08:02:05;;;;;;;32.75;4.63;;;;;;;;;;5053128;28;20429;-70
2022/01/28 08:04:30;;;;;;;30.33;4.90;;;5.60;99.90;;;;;;5053221;28;20099;-70
2022/01/28 08:06:56;;;;;;;47.80;6.05;;;5.50;99.90;;;;;;5052076;28;20049;-70
2022/01/28 08:09:21;;;;;;;35.90;4.82;;;5.70;99.90;;;;;;5053190;28;20053;-70
2022/01/28 08:11:47;;;;;;;38.42;4.70;;;5.70;99.90;;;;;;5053250;28;20120;-70
2022/01/28 08:14:14;;;;;;;33.65;4.82;;;6.00;99.90;;;;;;5053180;28;20076;-70
2022/01/28 08:16:40;;;;;;;37.42;5.63;;;5.80;99.90;;;;;;5068361;28;20132;-71
2022/01/28 08:19:06;;;;;;;;;;;5.80;99.90;;;;;;5053545;28;20053;-71
2022/01/28 08:21:31;;;;;;;35.63;4.63;;;5.60;99.90;;;;;;5052118;28;19978;-72
2022/01/28 08:23:57;;;;;;;30.00;4.68;;;5.60;99.90;;;;;;5052222;28;20102;-72
2022/01/28 08:26:23;;;;;;;30.88;4.25;;;;;;;;;;5052151;28;20103;-70
2022/01/28 08:28:49;;;;;;;34.75;4.20;;;5.70;99.90;;;;;;5053196;28;20102;-69
2022/01/28 08:31:15;;;;;;;36.67;4.47;;;5.40;99.90;;;;;;5052706;28;20045;-70
2022/01/28 08:33:40;;;;;;;32.53;4.50;;;5.60;99.90;;;;;;5051663;28;20063;-71
2022/01/28 08:36:06;;;;;;;29.17;4.90;;;5.60;99.90;;;;;;5052804;28;20056;-71
2022/01/28 08:38:36;;;;;;;31.42;4.68;;;5.80;99.90;;;;;;5085902;28;20065;-70
2022/01/28 08:41:03;;;;;;;39.85;5.13;;;5.70;99.90;;;;;;5068394;28;20186;-69
2022/01/28 08:43:28;;;;;;;;;;;5.40;99.90;;;;;;5053201;28;20401;-69
2022/01/28 08:45:54;;;;;;;28.27;4.18;;;5.80;99.90;;;;;;5085171;28;19921;-70
2022/01/28 08:48:20;;;;;;;27.80;4.05;;;5.90;99.90;;;;;;5051739;28;20132;-70
2022/01/28 08:50:46;;;;;;;24.05;4.53;;;5.90;99.90;;;;;;5052906;28;20128;-71
2022/01/28 08:53:12;;;;;;;29.70;4.43;;;5.90;99.90;;;;;;5052645;28;20131;-72
2022/01/28 08:55:39;;;;;;;30.63;4.20;;;5.80;99.90;;;;;;5051571;28;20393;-69
2022/01/28 08:58:07;;;;;;;;;;;5.80;99.90;;;;;;5053063;28;20040;-70
2022/01/28 09:00:33;;;;;;;25.58;3.90;;;;;;;;;;5051796;28;20424;-71
2022/01/28 09:02:59;;;;;;;32.88;4.20;;;6.00;99.90;;;;;;5052392;28;20452;-70
2022/01/28 09:05:30;;;;;;;31.23;4.55;;;6.20;99.90;;;;;;5051550;28;20063;-68
2022/01/28 09:07:56;;;;;;;33.70;5.30;;;6.00;99.90;;;;;;5052055;28;20511;-68
2022/01/28 09:10:29;;;;;;;38.88;5.82;;;6.10;99.90;;;;;;5050885;28;20041;-68
2022/01/28 09:15:41;;;;;;;28.38;4.38;;;6.40;99.90;;;;;;5052048;28;20067;-68
2022/01/28 09:18:09;;;;;;;26.77;4.47;;;6.50;99.90;;;;;;5052481;28;20053;-68
2022/01/28 09:20:35;;;;;;;33.10;5.03;;;6.50;99.90;;;;;;5051501;28;20118;-68
2022/01/28 09:23:03;;;;;;;33.25;5.65;;;6.60;99.90;;;;;;5051430;28;20045;-67
2022/01/28 09:25:29;;;;;;;36.55;4.45;;;6.60;99.90;;;;;;5052352;28;20559;-68
2022/01/28 09:27:55;;;;;;;27.05;4.00;;;6.60;99.90;;;;;;5052092;28;20334;-68
2022/01/28 09:30:21;;;;;;;37.20;4.50;;;6.60;99.90;;;;;;5052615;28;20062;-68
2022/01/28 09:32:47;;;;;;;31.35;5.25;;;6.60;99.90;;;;;;5067675;28;20552;-68
2022/01/28 09:35:13;;;;;;;28.55;4.20;;;6.50;99.90;;;;;;5052585;28;20056;-69
2022/01/28 09:37:39;;;;;;;;;;;6.60;99.90;;;;;;5052753;28;20451;-68
2022/01/28 09:40:05;;;;;;;42.30;4.97;;;6.60;99.90;;;;;;5052372;28;19921;-68
2022/01/28 09:42:35;;;;;;;22.48;4.20;;;6.40;99.90;;;;;;5051977;28;20045;-68
2022/01/28 09:45:04;;;;;;;26.30;4.07;;;6.70;99.90;;;;;;5052437;28;20041;-68
2022/01/28 09:47:31;;;;;;;34.97;4.32;;;6.40;99.90;;;;;;5052531;28;20404;-68
2022/01/28 09:49:57;;;;;;;33.70;4.70;;;6.60;99.90;;;;;;5051200;28;20052;-68
2022/01/28 09:52:23;;;;;;;29.38;4.32;;;6.60;99.90;;;;;;5052196;28;20052;-68
2022/01/28 09:54:48;;;;;;;28.58;3.90;;;6.90;99.90;;;;;;5050732;28;20041;-68
2022/01/28 09:57:18;;;;;;;46.97;5.18;;;6.60;99.90;;;;;;5051992;28;20053;-68
2022/01/28 09:59:45;;;;;;;36.03;4.35;;;6.50;99.90;;;;;;5053844;28;20060;-67
2022/01/28 10:02:10;;;;;;;;;;;6.70;99.90;;;;;;5056318;28;20052;-68
2022/01/28 10:04:36;;;;;;;36.50;4.75;;;6.60;99.90;;;;;;5055710;28;19921;-68
2022/01/28 10:07:17;;;;;;;28.83;4.07;;;6.60;99.90;;;;;;5054619;28;20047;-67
2022/01/28 10:09:57;;;;;;;37.15;4.00;;;6.60;99.90;;;;;;5055665;28;20045;-68
2022/01/28 10:12:39;;;;;;;35.15;5.22;;;6.60;99.90;;;;;;5055313;28;20120;-68
2022/01/28 10:15:17;;;;;;;25.75;4.00;;;6.90;99.90;;;;;;5055744;28;20109;-68
2022/01/28 10:17:52;;;;;;;23.88;3.85;;;6.50;99.90;;;;;;5054619;28;20045;-68
2022/01/28 10:20:19;;;;;;;20.27;3.42;;;6.60;99.90;;;;;;5087908;28;20519;-68
2022/01/28 10:23:04;;;;;;;36.72;4.35;;;6.60;99.90;;;;;;5055557;28;20124;-68
2022/01/28 10:25:33;;;;;;;38.03;4.97;;;6.60;99.90;;;;;;5087835;28;20460;-68
2022/01/28 10:28:11;;;;;;;29.75;4.38;;;6.70;99.90;;;;;;5055155;28;20453;-68
2022/01/28 10:30:39;;;;;;;31.95;3.83;;;6.40;99.90;;;;;;5055313;28;20107;-68
2022/01/28 10:33:20;;;;;;;27.77;3.58;;;;;;;;;;5055031;28;20550;-68
2022/01/28 10:35:51;;;;;;;38.65;4.65;;;6.70;99.90;;;;;;5055557;28;20136;-68
2022/01/28 10:38:37;;;;;;;43.90;4.68;;;6.90;99.90;;;;;;5054160;28;20414;-68
2022/01/28 10:41:08;;;;;;;36.72;4.65;;;6.90;99.90;;;;;;5054872;28;20481;-68
2022/01/28 10:43:45;;;;;;;28.15;4.03;;;6.80;99.90;;;;;;5055137;28;20041;-68
2022/01/28 10:46:11;;;;;;;30.55;4.63;;;7.00;99.90;;;;;;5055142;28;20092;-68
2022/01/28 10:48:58;;;;;;;33.50;4.72;;;;;;;;;;5055075;28;20076;-68
2022/01/28 10:51:39;;;;;;;36.88;3.95;;;6.90;99.90;;;;;;5054774;28;20041;-68
2022/01/28 10:54:13;;;;;;;28.63;4.28;;;6.70;99.90;;;;;;5054943;28;20128;-68
2022/01/28 10:56:46;;;;;;;26.35;3.83;;;6.60;99.90;;;;;;5054581;28;20045;-68
2022/01/28 10:59:15;;;;;;;26.40;3.88;;;6.80;99.90;;;;;;5054890;28;20049;-68
2022/01/28 11:01:42;;;;;;;30.75;4.78;;;6.80;99.90;;;;;;5054683;28;20480;-68
2022/01/28 11:04:10;;;;;;;28.27;3.50;;;6.90;99.90;;;;;;5054714;28;20051;-68
2022/01/28 11:06:37;;;;;;;34.47;4.22;;;6.90;99.90;;;;;;5054755;28;20047;-68
2022/01/28 11:09:03;;;;;;;32.90;5.97;;;7.00;99.90;;;;;;5054537;28;20049;-68
2022/01/28 11:11:29;;;;;;;40.70;4.53;;;7.10;99.90;;;;;;5053429;28;20047;-68
2022/01/28 11:13:57;;;;;;;36.15;5.25;;;7.20;99.90;;;;;;5054450;28;20045;-68
2022/01/28 11:16:23;;;;;;;32.92;5.60;;;7.40;99.90;;;;;;5054232;28;20059;-68
2022/01/28 11:18:49;;;;;;;39.72;4.80;;;7.30;99.90;;;;;;5054635;28;20128;-68
2022/01/28 11:21:17;;;;;;;32.45;5.05;;;7.30;99.90;;;;;;5087022;28;20057;-68
2022/01/28 11:24:01;;;;;;;45.28;5.38;;;7.30;99.90;;;;;;5054197;28;20045;-70
2022/01/28 11:26:50;;;;;;;38.80;5.97;;;7.50;99.90;;;;;;5054328;28;20044;-68
2022/01/28 11:29:28;;;;;;;26.17;4.53;;;7.10;99.90;;;;;;5054483;28;20045;-68
2022/01/28 11:32:08;;;;;;;24.35;4.07;;;7.40;99.90;;;;;;5054376;28;20117;-68
2022/01/28 11:34:34;;;;;;;27.98;3.65;;;7.40;99.90;;;;;;5053884;28;20400;-68
2022/01/28 11:37:03;;;;;;;30.25;4.00;;;7.10;99.90;;;;;;5054118;28;20053;-69
2022/01/28 11:39:34;;;;;;;32.28;4.03;;;7.00;99.90;;;;;;5053972;28;20098;-68
2022/01/28 11:42:13;;;;;;;23.73;4.00;;;7.20;99.90;;;;;;5054075;28;20040;-67
2022/01/28 11:44:51;;;;;;;26.67;4.18;;;7.30;99.90;;;;;;5054025;28;20186;-68
2022/01/28 11:47:27;;;;;;;25.45;3.70;;;7.60;99.90;;;;;;5054002;28;20040;-68
2022/01/28 11:50:07;;;;;;;21.40;4.05;;;7.30;99.90;;;;;;5052867;28;20439;-68
2022/01/28 11:53:00;;;;;;;25.90;3.92;;;7.40;99.90;;;;;;5054018;28;20048;-68
2022/01/28 11:55:26;;;;;;;26.60;4.30;;;7.20;99.90;;;;;;5052425;28;20053;-68
2022/01/28 11:57:58;;;;;;;31.90;4.32;;;7.00;99.90;;;;;;5053661;28;20384;-69
2022/01/28 12:00:27;;;;;;;26.13;3.47;;;7.50;99.90;;;;;;5053572;28;20045;-68
2022/01/28 12:02:53;;;;;;;30.08;2.88;;;7.20;99.90;;;;;;5053588;28;20051;-68
2022/01/28 12:05:31;;;;;;;18.73;3.63;;;7.20;99.90;;;;;;5053438;28;20041;-69
2022/01/28 12:08:00;;;;;;;21.63;3.63;;;7.10;99.90;;;;;;5053351;28;20045;-67
2022/01/28 12:10:27;;;;;;;24.50;3.65;;;7.30;99.90;;;;;;5085968;28;20542;-69
2022/01/28 12:13:05;;;;;;;22.38;3.75;;;7.70;99.90;;;;;;5053382;28;20133;-68
2022/01/28 12:15:59;;;;;;;20.77;3.85;;;7.30;99.90;;;;;;5053593;28;20045;-67
2022/01/28 12:18:25;;;;;;;20.90;3.03;;;7.30;99.90;;;;;;5053313;28;20061;-67
2022/01/28 12:20:52;;;;;;;;;;;7.60;99.90;;;;;;5053520;28;20041;-69
2022/01/28 12:23:18;;;;;;;22.60;3.33;;;7.20;99.90;;;;;;5052787;28;20402;-68
2022/01/28 12:25:44;;;;;;;19.30;2.85;;;7.40;99.90;;;;;;5053268;28;20095;-68
2022/01/28 12:28:32;;;;;;;17.52;4.13;;;7.30;99.90;;;;;;5053361;28;20132;-67
2022/01/28 12:31:04;;;;;;;21.83;3.50;;;7.10;99.90;;;;;;5053249;28;20049;-67
2022/01/28 12:33:36;;;;;;;29.15;3.95;;;7.30;99.90;;;;;;5052817;28;20071;-67
2022/01/28 12:36:15;;;;;;;18.77;3.45;;;7.30;99.90;;;;;;5085719;28;20056;-68
2022/01/28 12:38:55;;;;;;;22.85;2.53;;;7.30;99.90;;;;;;5053153;28;20074;-68
2022/01/28 12:41:23;;;;;;;25.55;3.70;;;7.60;99.90;;;;;;5053015;28;20044;-67
2022/01/28 12:43:52;;;;;;;34.50;4.20;;;7.90;99.90;;;;;;5052722;28;20128;-68
2022/01/28 12:46:18;;;;;;;41.58;7.00;;;7.90;99.90;;;;;;5052996;28;20045;-67
2022/01/28 12:48:55;;;;;;;21.30;3.38;;;7.60;99.90;;;;;;5052008;28;20135;-67
2022/01/28 12:51:23;;;;;;;23.85;4.50;;;7.80;99.90;;;;;;5052607;28;20037;-67
2022/01/28 12:53:54;;;;;;;17.00;3.45;;;7.80;99.90;;;;;;5052721;28;20342;-68
2022/01/28 12:56:39;;;;;;;22.05;2.75;;;7.80;99.90;;;;;;5052692;28;20090;-67
2022/01/28 12:59:06;;;;;;;15.98;3.53;;;8.30;99.90;;;;;;5053163;28;20326;-68
2022/01/28 13:01:32;;;;;;;23.13;3.47;;;8.00;99.90;;;;;;5052614;28;20048;-67
2022/01/28 13:04:04;;;;;;;;;;;8.50;99.90;;;;;;5053000;28;20493;-68
2022/01/28 13:09:23;;;;;;;15.60;2.95;;;8.30;99.90;;;;;;5052369;28;20053;-67
2022/01/28 13:11:56;;;;;;;21.60;3.30;;;9.60;99.90;;;;;;5052847;28;20489;-67
2022/01/28 13:14:33;;;;;;;21.25;2.90;;;8.40;99.90;;;;;;5052424;28;20049;-67
2022/01/28 13:17:05;;;;;;;16.02;3.38;;;8.60;99.90;;;;;;5052702;28;20386;-67
2022/01/28 13:19:31;;;;;;;18.42;3.10;;;8.80;99.90;;;;;;5052478;28;20044;-67
2022/01/28 13:21:57;;;;;;;21.60;3.50;;;10.20;99.90;;;;;;5084924;28;20053;-67
2022/01/28 13:24:27;;;;;;;;;;;8.60;99.90;;;;;;5052917;28;20083;-67
2022/01/28 13:27:07;;;;;;;24.80;3.25;;;8.60;99.90;;;;;;5051406;28;20322;-68
2022/01/28 13:29:39;;;;;;;20.73;3.65;;;8.30;99.90;;;;;;5052513;28;20076;-67
2022/01/28 13:32:05;;;;;;;26.50;3.22;;;8.50;99.90;;;;;;5052288;28;20503;-66
2022/01/28 13:34:49;;;;;;;18.52;2.88;;;8.50;99.90;;;;;;5054272;28;20080;-67
2022/01/28 13:37:40;;;;;;;20.02;2.95;;;8.70;99.90;;;;;;5056436;28;20052;-68
2022/01/28 13:40:18;;;;;;;21.25;3.28;;;8.50;99.90;;;;;;5056296;28;20059;-68
2022/01/28 13:43:13;;;;;;;25.67;4.07;;;10.20;99.90;;;;;;5056550;28;20045;-68
2022/01/28 13:45:53;;;;;;;14.38;2.72;;;9.20;99.90;;;;;;5056311;28;20049;-67
2022/01/28 13:48:37;;;;;;;22.23;3.38;;;8.70;99.90;;;;;;5056113;28;20143;-67
2022/01/28 13:51:06;;;;;;;19.38;3.13;;;9.40;99.90;;;;;;5056094;28;20060;-67
2022/01/28 13:56:33;;;;;;;21.42;2.88;;;9.70;99.90;;;;;;5056102;28;20162;-67
2022/01/28 13:58:59;;;;;;;21.40;2.72;;;8.10;99.90;;;;;;5055865;28;20098;-67
2022/01/28 14:01:28;;;;;;;16.98;2.95;;;8.30;99.90;;;;;;5056161;28;20562;-67
2022/01/28 14:03:59;;;;;;;20.75;2.50;;;8.00;99.90;;;;;;5055957;28;20091;-68
2022/01/28 14:06:35;;;;;;;24.80;3.63;;;8.90;99.90;;;;;;5054733;28;20338;-67
2022/01/28 14:09:09;;;;;;;12.38;2.58;;;7.60;99.90;;;;;;5055822;28;20055;-66
2022/01/28 14:11:42;;;;;;;16.20;2.83;;;7.90;99.90;;;;;;5055734;28;20194;-66
2022/01/28 14:14:43;;;;;;;18.63;2.88;;;7.50;99.90;;;;;;5056226;28;20045;-67
2022/01/28 14:17:10;;;;;;;19.27;4.25;;;7.30;99.90;;;;;;5055714;28;20127;-67
2022/01/28 14:19:41;;;;;;;23.52;2.38;;;8.70;99.90;;;;;;5055340;28;20182;-67
2022/01/28 14:22:08;;;;;;;18.13;3.15;;;7.60;99.90;;;;;;5055411;28;20056;-67
2022/01/28 14:24:36;;;;;;;14.90;2.40;;;7.60;99.90;;;;;;5055465;28;20525;-67
2022/01/28 14:32:22;;;;;;;14.68;2.55;;;8.70;99.90;;;;;;5055130;28;20053;-70
2022/01/28 14:34:52;;;;;;;17.08;2.35;;;7.60;99.90;;;;;;5055197;28;20045;-69
2022/01/28 14:37:20;;;;;;;22.55;2.45;;;7.30;99.90;;;;;;5055145;28;20045;-68
2022/01/28 14:39:46;;;;;;;16.42;2.45;;;7.20;99.90;;;;;;4177702;28;10001067;-68
2022/01/28 14:42:12;;;;;;;20.45;2.95;;;7.20;99.90;;;;;;5048849;28;20391;-68
2022/01/28 14:44:41;;;;;;;17.92;2.60;;;7.10;99.90;;;;;;5032209;28;20041;-67
2022/01/28 14:47:08;;;;;;;18.92;2.72;;;7.10;99.90;;;;;;5034055;28;20064;-69
2022/01/28 14:49:34;;;;;;;16.42;2.90;;;8.60;99.90;;;;;;5033957;28;20111;-70
2022/01/28 14:52:04;;;;;;;18.20;3.10;;;7.30;99.90;;;;;;5034832;28;20482;-69
2022/01/28 14:54:30;;;;;;;16.52;2.33;;;7.10;99.90;;;;;;5034696;28;20053;-70
2022/01/28 14:57:02;;;;;;;16.55;3.00;;;7.10;99.90;;;;;;5034791;28;20054;-69
2022/01/28 14:59:28;;;;;;;26.75;3.28;;;6.90;99.90;;;;;;5034610;28;20440;-70
2022/01/28 15:01:55;;;;;;;;;;;6.80;99.90;;;;;;5035004;28;20060;-71